Date,TemperatureHighF,TemperatureAvgF,TemperatureLowF,DewpointHighF,DewpointAvgF,DewpointLowF,HumidityHigh,HumidityAvg,HumidityLow,PressureMaxIn,PressureMinIn,WindSpeedMaxMPH,WindSpeedAvgMPH,GustSpeedMaxMPH,PrecipitationSumIn
2013-3-1,57,52,50,46,45,42,82,77,60,30.34,30.27,0,0,0,0.00
2013-3-2,40,40,38,35,34,33,81,81,81,30.19,30.16,0,0,0,0.00
2013-3-3,49,41,35,34,30,21,84,66,36,30.29,30.18,0,0,0,0.00
2013-3-4,54,42,31,39,28,15,84,62,21,30.29,29.91,5,0,5,0.28
2013-3-5,49,44,39,36,30,21,77,58,45,29.91,29.71,0,0,0,0.00
2013-3-6,43,42,40,37,36,34,83,79,71,29.88,29.57,0,0,0,0.01
2013-3-7,53,45,40,43,38,33,84,75,50,30.08,29.88,6,0,9,0.07
2013-3-8,51,43,36,36,34,28,86,71,46,30.23,30.06,0,0,0,0.01
2013-3-9,55,43,33,38,32,27,87,68,36,30.48,30.23,0,0,0,0.63
2013-3-10,47,43,38,38,35,32,83,75,60,30.48,30.41,0,0,0,0.00
2013-3-11,51,46,41,42,38,34,84,73,55,30.43,30.14,0,0,0,0.00
2013-3-12,55,51,48,46,44,40,83,75,58,30.14,30.04,0,0,0,0.02
2013-3-13,50,50,50,44,44,44,80,79,78,30.14,30.09,0,0,0,0.00
2013-3-16,50,44,39,42,33,30,76,66,52,29.97,29.86,20,0,22,0.04
2013-3-17,49,42,38,34,31,25,80,67,41,30.18,29.96,0,0,0,0.13
2013-3-18,53,44,40,36,31,22,77,60,30,30.23,30.08,0,0,0,2.46
2013-3-19,55,43,36,38,31,19,83,65,24,30.22,29.57,0,0,0,0.00
2013-3-20,52,47,39,47,39,28,89,75,56,30.00,29.36,28,2,29,0.08
2013-3-21,41,39,37,33,31,28,80,74,65,30.19,30.00,0,0,0,0.13
2013-3-22,48,40,34,32,26,18,84,59,31,30.37,30.28,0,0,0,0.10
2013-3-23,51,40,33,29,25,14,81,57,23,30.39,30.29,0,0,0,0.20
2013-3-24,54,42,31,30,26,18,83,57,26,30.29,30.11,0,0,0,0.00
2013-3-25,60,48,35,34,24,17,70,42,19,30.12,29.92,0,0,0,0.00
2013-3-26,60,51,45,36,32,24,65,50,26,30.00,29.94,0,0,0,0.00
2013-3-27,57,50,45,43,37,31,82,63,43,29.98,29.92,0,0,0,0.00
2013-3-28,63,52,44,45,41,34,86,70,35,30.13,29.97,0,0,0,0.00
2013-3-29,63,53,44,43,40,33,85,64,33,30.23,30.13,0,0,0,0.00
2013-3-30,62,52,42,43,40,38,87,65,45,30.24,30.06,0,0,0,0.00
2013-3-31,66,56,44,40,38,34,78,53,31,30.06,29.89,0,0,0,0.03